Pikeville, North Carolina
Current Conditions -  °F | °C
As of 8:15 AM on Thursday 18 Dec 2014 (Local Time) from KGWW Reporting Station
Clear Clear  
Wind Chill: 35°   Ceiling: Unl
Heat Index: 35°   Visibility: 10mi
Dew Point: 30°   Wind: 3mph
Humidity: 82%   Direction: 50°NE
Pressure: 30.17"   Gusts: NA
Location:  35.5°N, 77.98°W
Report Text: KGWW 181315Z AUTO 05003KT 10SM CLR 02/M01 A3017 RMK AO2 T00171011
Loading
Personal Weather Stations






























Interactive Weather Map New forecast layout! Learn more

10-Day Weather Forecast

Advertisements
Track Severe Weather on mobile